createdAt,value
2018-10-16T00:00:38.783Z,69.97
2018-10-16T00:04:45.778Z,70.30
2018-10-16T00:08:52.790Z,69.81
2018-10-16T00:12:59.825Z,70.47
2018-10-16T00:17:06.886Z,69.86
2018-10-16T00:21:13.945Z,70.40
2018-10-16T00:25:20.979Z,70.05
2018-10-16T00:29:28.018Z,69.97
2018-10-16T00:33:35.058Z,70.36
2018-10-16T00:37:42.092Z,70.05
2018-10-16T00:41:56.516Z,70.34
2018-10-16T00:46:03.632Z,71.19
2018-10-16T00:50:10.909Z,71.39
2018-10-16T00:54:17.977Z,71.39
2018-10-16T00:58:25.001Z,71.59
2018-10-16T01:02:32.018Z,72.31
2018-10-16T01:06:39.484Z,72.83
2018-10-16T01:10:46.516Z,74.26
2018-10-16T01:14:53.523Z,74.26
2018-10-16T01:19:00.537Z,74.12
2018-10-16T01:23:07.713Z,75.20
2018-10-16T01:27:14.750Z,75.25
2018-10-16T01:31:21.771Z,75.68
2018-10-16T01:35:28.781Z,75.43
2018-10-16T01:39:35.772Z,75.84
2018-10-16T01:43:42.784Z,75.87
2018-10-16T01:47:49.823Z,76.93
2018-10-16T01:51:56.848Z,77.47
2018-10-16T01:56:03.848Z,77.66
2018-10-16T02:00:11.966Z,78.17
2018-10-16T02:04:18.984Z,78.84
2018-10-16T02:08:26.013Z,78.58
2018-10-16T02:12:33.023Z,78.07
2018-10-16T02:16:40.021Z,79.16
2018-10-16T02:20:47.010Z,79.42
2018-10-16T02:24:53.990Z,79.48
2018-10-16T02:29:00.966Z,79.19
2018-10-16T02:33:08.149Z,79.28
2018-10-16T02:37:15.076Z,79.25
2018-10-16T02:41:22.169Z,78.85
2018-10-16T02:45:29.192Z,78.71
2018-10-16T02:49:36.243Z,78.97
2018-10-16T02:53:43.257Z,78.46
2018-10-16T02:57:50.256Z,78.76
2018-10-16T03:01:57.310Z,78.49
2018-10-16T03:06:04.372Z,79.05
2018-10-16T03:10:11.381Z,78.94
2018-10-16T03:14:18.404Z,78.56
2018-10-16T03:18:25.422Z,78.39
2018-10-16T03:22:32.475Z,78.08
2018-10-16T03:26:39.966Z,78.17
2018-10-16T03:30:46.957Z,78.15
2018-10-16T03:34:54.001Z,78.05
2018-10-16T03:39:01.033Z,77.77
2018-10-16T03:43:08.278Z,78.33
2018-10-16T03:47:15.326Z,77.50
2018-10-16T03:51:22.375Z,77.39
2018-10-16T03:55:29.415Z,77.39
2018-10-16T03:59:36.494Z,77.55
2018-10-16T04:03:43.506Z,77.41
2018-10-16T04:07:50.510Z,78.03
2018-10-16T04:11:57.551Z,77.89
2018-10-16T04:16:04.564Z,77.83
2018-10-16T04:20:11.655Z,78.55
2018-10-16T04:24:18.596Z,78.81
2018-10-16T04:28:25.630Z,78.55
2018-10-16T04:32:32.650Z,78.82
2018-10-16T04:36:39.751Z,78.95
2018-10-16T04:40:46.755Z,79.33
2018-10-16T04:44:53.787Z,79.27
2018-10-16T04:49:00.763Z,79.04
2018-10-16T04:53:08.163Z,79.28
2018-10-16T04:57:15.233Z,79.74
2018-10-16T05:01:22.314Z,79.58
2018-10-16T05:05:29.390Z,79.29
2018-10-16T05:09:36.444Z,80.60
2018-10-16T05:13:43.472Z,81.29
2018-10-16T05:17:50.532Z,80.25
2018-10-16T05:21:57.580Z,79.37
2018-10-16T05:26:04.915Z,80.13
2018-10-16T05:30:12.135Z,79.35
2018-10-16T05:34:19.257Z,79.74
2018-10-16T05:38:26.305Z,79.58
2018-10-16T05:42:33.372Z,79.38
2018-10-16T05:46:40.397Z,79.85
2018-10-16T05:50:47.438Z,81.24
2018-10-16T05:54:55.050Z,81.24
2018-10-16T05:59:02.128Z,81.34
2018-10-16T06:03:09.198Z,80.96
2018-10-16T06:07:16.255Z,81.26
2018-10-16T06:11:23.306Z,81.10
2018-10-16T06:15:30.364Z,81.27
2018-10-16T06:19:37.497Z,81.71
2018-10-16T06:23:44.525Z,81.60
2018-10-16T06:27:51.580Z,81.53
2018-10-16T06:31:58.594Z,81.60
2018-10-16T06:36:05.689Z,80.97
2018-10-16T06:40:12.722Z,80.79
2018-10-16T06:44:19.848Z,80.55
2018-10-16T06:48:27.009Z,81.04
2018-10-16T06:52:33.863Z,81.21
2018-10-16T06:56:40.880Z,80.90
2018-10-16T07:00:48.022Z,80.57
2018-10-16T07:04:54.949Z,80.51
2018-10-16T07:09:01.952Z,80.71
2018-10-16T07:13:09.080Z,80.39
2018-10-16T07:17:16.017Z,80.07
2018-10-16T07:21:23.207Z,79.54
2018-10-16T07:25:30.093Z,78.90
2018-10-16T07:29:37.437Z,78.40
2018-10-16T07:33:44.469Z,77.38
2018-10-16T07:37:51.518Z,76.98
2018-10-16T07:41:58.498Z,75.45
2018-10-16T07:46:05.636Z,74.73
2018-10-16T07:50:13.616Z,73.25
2018-10-16T07:54:20.752Z,71.74
2018-10-16T07:58:27.749Z,69.85
2018-10-16T08:02:34.785Z,67.82
2018-10-16T08:06:41.790Z,65.61
2018-10-16T08:10:48.818Z,63.52
2018-10-16T08:14:55.841Z,63.54
2018-10-16T08:19:02.901Z,62.52
2018-10-16T08:23:09.948Z,60.86
2018-10-16T08:27:16.953Z,57.67
2018-10-16T08:31:23.990Z,56.65
2018-10-16T08:35:31.123Z,56.38
2018-10-16T08:39:41.485Z,56.52
2018-10-16T08:44:33.213Z,55.26
2018-10-16T08:49:34.256Z,54.87
2018-10-16T08:53:41.291Z,55.65
2018-10-16T08:57:48.429Z,56.03
2018-10-16T09:01:55.499Z,55.73
2018-10-16T09:06:02.591Z,56.32
2018-10-16T09:10:09.685Z,54.71
2018-10-16T09:14:17.282Z,56.59
2018-10-16T09:18:24.303Z,56.96
2018-10-16T09:22:31.929Z,56.85
2018-10-16T09:26:38.952Z,57.08
2018-10-16T09:30:46.084Z,58.00
2018-10-16T09:34:53.189Z,57.23
2018-10-16T09:39:00.303Z,57.00
2018-10-16T09:43:07.415Z,56.86
2018-10-16T09:47:14.466Z,56.61
2018-10-16T09:51:21.519Z,56.64
2018-10-16T09:55:28.573Z,56.61
2018-10-16T09:59:35.597Z,55.76
2018-10-16T10:03:42.621Z,56.27
2018-10-16T10:07:49.660Z,56.06
2018-10-16T10:11:56.685Z,55.17
2018-10-16T10:16:03.720Z,55.25
2018-10-16T10:20:11.198Z,54.27
2018-10-16T10:24:18.251Z,54.13
2018-10-16T10:28:25.276Z,52.96
2018-10-16T10:32:32.569Z,52.93
2018-10-16T10:36:39.566Z,53.24
2018-10-16T10:40:46.623Z,52.34
2018-10-16T10:44:53.656Z,51.98
2018-10-16T10:49:00.670Z,52.10
2018-10-16T10:53:07.740Z,50.96
2018-10-16T10:57:14.846Z,50.77
2018-10-16T11:01:21.875Z,50.96
2018-10-16T11:05:29.194Z,50.67
2018-10-16T11:09:36.716Z,50.24
2018-10-16T11:13:43.743Z,49.01
2018-10-16T11:17:51.227Z,49.79
2018-10-16T11:21:58.272Z,49.17
2018-10-16T11:26:05.280Z,47.10
2018-10-16T11:30:16.926Z,47.03
2018-10-16T11:34:23.949Z,46.17
2018-10-16T11:38:31.011Z,44.99
2018-10-16T11:42:38.045Z,43.02
2018-10-16T11:46:45.044Z,41.96
2018-10-16T11:50:52.052Z,39.29
2018-10-16T11:54:59.064Z,39.46
2018-10-16T11:59:06.320Z,36.84
2018-10-16T12:03:13.304Z,35.46
2018-10-16T12:07:20.294Z,35.63
2018-10-16T12:11:27.370Z,34.52
2018-10-16T12:15:34.381Z,34.06
2018-10-16T12:19:44.999Z,33.79
2018-10-16T12:23:52.284Z,33.66
2018-10-16T12:27:59.592Z,33.38
2018-10-16T12:32:07.048Z,33.39
2018-10-16T12:36:14.289Z,33.75
2018-10-16T12:40:21.531Z,32.91
2018-10-16T12:44:28.774Z,33.32
2018-10-16T12:48:36.083Z,33.70
2018-10-16T12:52:43.359Z,32.46
2018-10-16T12:56:50.710Z,33.41
2018-10-16T13:00:57.928Z,32.72
2018-10-16T13:05:05.181Z,33.23
2018-10-16T13:09:13.388Z,32.53
2018-10-16T13:13:20.637Z,31.50
2018-10-16T13:17:27.869Z,32.58
2018-10-16T13:21:34.936Z,32.40
2018-10-16T13:25:42.013Z,31.57
2018-10-16T13:29:49.105Z,32.65
2018-10-16T13:33:56.244Z,32.23
2018-10-16T13:38:03.169Z,33.06
2018-10-16T13:42:10.653Z,34.51
2018-10-16T13:46:17.686Z,34.32
2018-10-16T13:50:24.724Z,34.64
2018-10-16T13:54:31.747Z,36.43
2018-10-16T13:58:38.775Z,36.53
2018-10-16T14:02:46.932Z,37.98
2018-10-16T14:06:53.986Z,37.99
2018-10-16T14:11:01.031Z,38.99
2018-10-16T14:15:08.437Z,39.25
2018-10-16T14:19:15.465Z,39.06
2018-10-16T14:23:22.537Z,39.77
2018-10-16T14:27:29.647Z,39.52
2018-10-16T14:31:38.082Z,40.29
2018-10-16T14:35:45.286Z,40.49
2018-10-16T14:39:52.356Z,40.09
2018-10-16T14:43:59.355Z,40.16
2018-10-16T14:48:06.458Z,40.45
2018-10-16T14:52:13.461Z,40.23
2018-10-16T14:56:20.427Z,40.48
2018-10-16T15:00:27.427Z,40.75
2018-10-16T15:04:34.669Z,40.52
2018-10-16T15:08:41.689Z,40.66
2018-10-16T15:16:55.665Z,41.07
2018-10-16T15:21:03.683Z,41.36
2018-10-16T15:25:11.719Z,41.91
2018-10-16T15:29:18.796Z,42.39
2018-10-16T15:33:25.912Z,42.20
2018-10-16T15:37:33.042Z,42.64
2018-10-16T15:41:40.135Z,42.30
2018-10-16T15:45:47.166Z,42.60
2018-10-16T15:49:54.198Z,43.13
2018-10-16T15:54:01.341Z,43.51
2018-10-16T15:58:08.940Z,43.62
2018-10-16T16:02:16.094Z,44.06
2018-10-16T16:06:23.061Z,43.50
2018-10-16T16:10:30.126Z,43.82
2018-10-16T16:14:37.266Z,44.07
2018-10-16T16:18:44.312Z,44.38
2018-10-16T16:22:51.360Z,44.55
2018-10-16T16:26:58.480Z,45.05
2018-10-16T16:31:05.416Z,45.32
2018-10-16T16:35:12.499Z,45.63
2018-10-16T16:39:19.485Z,46.07
2018-10-16T16:43:26.514Z,46.32
2018-10-16T16:47:33.537Z,46.91
2018-10-16T16:51:40.660Z,47.25
2018-10-16T16:55:47.818Z,47.72
2018-10-16T16:59:54.821Z,48.38
2018-10-16T17:04:01.866Z,48.45
2018-10-16T17:08:08.977Z,48.77
2018-10-16T17:12:15.895Z,48.93
2018-10-16T17:16:22.968Z,49.27
2018-10-16T17:20:29.979Z,49.43
2018-10-16T17:24:37.070Z,49.94
2018-10-16T17:28:44.122Z,50.37
2018-10-16T17:32:51.223Z,50.91
2018-10-16T17:36:58.262Z,50.99
2018-10-16T17:41:05.347Z,51.77
2018-10-16T17:45:13.766Z,52.12
2018-10-16T17:49:20.842Z,52.27
2018-10-16T17:53:27.953Z,52.56
2018-10-16T18:01:42.190Z,53.19
2018-10-16T18:05:49.444Z,53.54
2018-10-16T18:09:57.640Z,53.80
2018-10-16T18:14:04.661Z,53.65
2018-10-16T18:18:11.752Z,54.29
2018-10-16T18:22:18.757Z,54.47
2018-10-16T18:26:25.777Z,54.74
2018-10-16T18:30:33.860Z,54.98
2018-10-16T18:34:40.883Z,55.08
2018-10-16T18:38:47.938Z,55.25
2018-10-16T18:42:54.980Z,55.50
2018-10-16T18:47:02.007Z,55.70
2018-10-16T18:51:09.618Z,55.94
2018-10-16T18:55:16.791Z,56.04
2018-10-16T18:59:23.817Z,56.34
2018-10-16T19:03:30.879Z,56.56
2018-10-16T19:07:38.070Z,56.83
2018-10-16T19:11:45.172Z,56.77
2018-10-16T19:15:52.238Z,57.26
2018-10-16T19:19:59.374Z,57.59
2018-10-16T19:24:06.455Z,57.79
2018-10-16T19:28:13.542Z,57.63
2018-10-16T19:32:20.591Z,57.72
2018-10-16T19:36:27.639Z,58.57
2018-10-16T19:40:34.670Z,58.27
2018-10-16T19:44:41.885Z,58.60
2018-10-16T19:48:48.861Z,58.61
2018-10-16T19:52:55.892Z,59.12
2018-10-16T19:57:03.060Z,59.36
2018-10-16T20:01:10.018Z,59.50
2018-10-16T20:05:17.049Z,59.75
2018-10-16T20:09:24.119Z,59.63
2018-10-16T20:13:32.024Z,59.79
2018-10-16T20:17:39.905Z,60.37
2018-10-16T20:21:47.065Z,60.22
2018-10-16T20:25:54.092Z,60.54
2018-10-16T20:30:01.426Z,60.63
2018-10-16T20:34:08.793Z,60.82
2018-10-16T20:38:16.158Z,61.27
2018-10-16T20:42:23.438Z,60.85
2018-10-16T20:46:30.561Z,61.06
2018-10-16T20:50:37.873Z,61.41
2018-10-16T20:54:44.983Z,61.36
2018-10-16T20:58:52.173Z,61.76
2018-10-16T21:02:59.117Z,61.86
2018-10-16T21:07:07.280Z,62.19
2018-10-16T21:11:15.304Z,62.52
2018-10-16T21:15:22.759Z,62.88
2018-10-16T21:19:33.233Z,63.30
2018-10-16T21:23:41.709Z,63.57
2018-10-16T21:27:49.007Z,63.78
2018-10-16T21:32:05.648Z,64.19
2018-10-16T21:36:12.883Z,64.55
2018-10-16T21:40:20.274Z,64.30
2018-10-16T21:44:27.937Z,64.39
2018-10-16T21:48:35.133Z,64.77
2018-10-16T21:52:43.459Z,64.92
2018-10-16T21:56:51.050Z,65.11
2018-10-16T22:01:13.934Z,64.39
2018-10-16T22:05:24.536Z,65.24
2018-10-16T22:09:31.573Z,65.84
2018-10-16T22:13:38.655Z,66.25
2018-10-16T22:17:45.678Z,66.65
2018-10-16T22:21:52.694Z,67.25
2018-10-16T22:25:59.726Z,67.07
2018-10-16T22:30:07.375Z,67.64
2018-10-16T22:34:14.358Z,67.77
2018-10-16T22:38:21.371Z,67.86
2018-10-16T22:42:28.484Z,68.30
2018-10-16T22:46:35.677Z,68.39
2018-10-16T22:50:42.711Z,68.64
2018-10-16T22:54:49.755Z,68.78
2018-10-16T22:58:56.822Z,68.76
2018-10-16T23:03:03.854Z,68.88
2018-10-16T23:07:10.974Z,69.35
2018-10-16T23:11:18.063Z,69.63
2018-10-16T23:15:25.003Z,70.06
2018-10-16T23:19:32.025Z,69.94
2018-10-16T23:23:39.069Z,69.98
2018-10-16T23:27:46.117Z,70.37
2018-10-16T23:31:53.128Z,70.39
2018-10-16T23:36:00.176Z,70.29
2018-10-16T23:40:07.734Z,70.79
2018-10-16T23:44:14.799Z,71.42
2018-10-16T23:48:21.819Z,71.74
2018-10-16T23:52:28.801Z,71.61
2018-10-16T23:56:35.872Z,71.58
